Terminal Aerodrome Forecast
Issued by NWS North Platte, NE

Home | Current Version | Previous Version | Graphics & Text | Print | Product List | Glossary On
Versions: 1 2 3 4 5 6 7 8 9 10 11 12 13 14 15 16 17 18 19
000
FTUS43 KLBF 261723
TAFVTN
TAF
KVTN 261723Z 2618/2718 33015KT P6SM BKN015
     FM262200 34011KT P6SM FEW015
     FM270200 34006KT P6SM FEW250
     FM270500 VRB03KT P6SM SCT250
     FM270900 VRB03KT P6SM SCT100
     FM271500 06006KT P6SM BKN100=

USA.gov is the U.S. government's official web portal to all federal, state and local government web resources and services.